Rogers, AR

10:34 AM CDT on September 01, 2014 (GMT -0500)
Bentonville Municipal-Thaden | Change Station
CLOSE
Current Station
Airport
Location: Bentonville,
Elevation: 1296 ft
Nearby Weather Stations

Elev 1296 ft 36.34 °N, 94.22 °W | Updated 19 minutes ago

Overcast
Overcast
66 °F
Feels Like 66 °F
N
8
Wind Variable Wind from East

Today
High -- | Low -- °F
--% Chance of Precip.
Yesterday
High -- | Low -- °F
Precip. -- in
6:47 AM 7:43 PM
Waxing Crescent, 41% visible
Pressure 30.07 in
Visibility 7.0 miles
Clouds Overcast 2800 ft
Dew Point 63 °F
Humidity 88%
Rainfall 0.80 in
Snow Depth Not available.
UV 2 out of 12
Pollen 10.90 out of 12
Air Quality Not available.
Flu Activity Not available.
METAR KVBT 011515Z AUTO 08007KT 7SM OVC028 19/17 A3007 RMK AO1 P0001

More Conditions Fewer Conditions

Pressure 30.07 in
Visibility 7.0 miles
Clouds Overcast 2800 ft
Dew Point 63 °F
Humidity 88%
Rainfall 0.80 in
Snow Depth Not available.
UV 2 out of 12
Pollen 10.90 out of 12
Air Quality Not available.
Flu Activity Not available.
METAR KVBT 011515Z AUTO 08007KT 7SM OVC028 19/17 A3007 RMK AO1 P0001

More Conditions Fewer Conditions

Nowcast | as of 10:26 am CDT on September 1, 2014

At 10:26 am...scattered showers were ongoing over portions of far northwest Arkansas and far northeast Oklahoma. This activity has continued to decrease in both intensity and coverage as it moves off to the east at around 40 mph. Through 12:00 PM...isolated to widely scattered showers will remain possible for Benton...Carroll...Washington and Madison counties in northwest Arkansas...as well as Cherokee...Adair and southern Delaware counties in Oklahoma. The activity is expected to continue to gradually weaken as it moves east through the area. The bulk of the measurable rainfall will affect eastern Benton and Carroll counties...where average rainfall of around one tenth of an inch will be common. Locally higher amounts to one quarter inch will be possible with the stronger showers. For the rest of the outlooked area...average rainfall will be less than one tenth of an inch.

×

10-Day Weather Forecast

Almanac

Astronomy

Sep. 01, 2014 Rise Set
Actual Time 6:47 AM CDT 7:43 PM CDT
Civil Twilight 6:21 AM CDT 8:10 PM CDT
Nautical Twilight 5:50 AM CDT 8:41 PM CDT
Astronomical Twilight 5:17 AM CDT 9:13 PM CDT
Moon 1:22 PM CDT 11:57 PM CDT
Length of Visible Light 13h 48m
Length of Day
12h 56m
Tomorrow will be 2m 12s shorter.
Waxing Crescent, 41% of the Moon is Illuminated
Today
Waxing Crescent
Sep 2
First Quarter
Sep 8
Full
Sep 15
Last Quarter
Sep 24
New

Today's Extremes

State Highs State Lows

Community

WunderPhotos

Upload Photos

1,749,276 photos uploaded!

Nearby

Snow Depth

Station Depth Elevation
No new snow has been reported.

Earthquake Activity

City Distance Mag. Time & Date
No recent earthquake activity has been reported nearby.
Minimum magnitude displayed is 2.5.

Coastal Water Temperatures

Place Temperature
No Stations Reporting

Nearby Weather Stations